Time;durP1;ratioP1;P1;durP2;ratioP2;P2;SDS_P1;SDS_P2;PMS_P1;PMS_P2;Temp;Humidity;BMP_temperature;BMP_pressure;BME280_temperature;BME280_humidity;BME280_pressure;Samples;Min_cycle;Max_cycle;Signal;HPM_P1;HPM_P2
2024/01/18 00:02:45;;;;;;;8.30;4.57;;;;;;;1.47;64.55;97386.25;10520012;28;20068;-65
2024/01/18 00:07:47;;;;;;;7.00;3.72;;;;;;;1.48;64.55;97387.91;10514867;28;20036;-66
2024/01/18 00:12:49;;;;;;;8.77;4.28;;;;;;;1.44;64.67;97383.88;10515512;28;20155;-65
2024/01/18 00:17:51;;;;;;;8.77;4.10;;;;;;;1.46;64.73;97389.75;10516760;27;20123;-66
2024/01/18 00:22:54;;;;;;;7.47;4.05;;;;;;;1.51;64.53;97387.69;10500173;28;20268;-65
2024/01/18 00:27:56;;;;;;;8.50;4.13;;;;;;;1.44;64.31;97397.59;10501679;28;20059;-65
2024/01/18 00:32:58;;;;;;;7.20;4.43;;;;;;;1.38;64.23;97416.81;10512108;28;20044;-66
2024/01/18 00:38:00;;;;;;;9.85;4.20;;;;;;;1.37;64.28;97404.03;10516238;28;20501;-65
2024/01/18 00:43:03;;;;;;;7.28;3.88;;;;;;;1.21;64.39;97409.31;10517633;28;20570;-66
2024/01/18 00:48:05;;;;;;;7.57;3.78;;;;;;;1.18;64.85;97404.34;10502649;28;20490;-66
2024/01/18 00:53:07;;;;;;;8.50;4.15;;;;;;;1.25;64.77;97415.94;10501115;28;20059;-65
2024/01/18 00:58:09;;;;;;;8.25;4.07;;;;;;;1.34;64.62;97441.09;10518938;28;20048;-65
2024/01/18 01:03:12;;;;;;;7.78;3.90;;;;;;;1.41;64.53;97449.28;10518776;28;20040;-66
2024/01/18 01:08:14;;;;;;;7.38;4.10;;;;;;;1.27;64.44;97449.31;10494610;28;20126;-65
2024/01/18 01:13:16;;;;;;;8.80;4.05;;;;;;;1.31;64.94;97456.75;10517573;28;20056;-65
2024/01/18 01:18:18;;;;;;;8.95;3.55;;;;;;;1.43;64.55;97470.59;10533483;28;20122;-64
2024/01/18 01:23:20;;;;;;;6.88;4.10;;;;;;;1.45;64.54;97483.38;10516483;28;20036;-65
2024/01/18 01:28:22;;;;;;;7.38;4.10;;;;;;;1.48;64.29;97480.63;10517274;28;20131;-64
2024/01/18 01:33:24;;;;;;;7.45;3.78;;;;;;;1.45;64.58;97470.50;10516861;28;20147;-65
2024/01/18 01:38:27;;;;;;;10.70;4.28;;;;;;;1.40;64.63;97467.41;10515827;28;20075;-66
2024/01/18 01:43:32;;;;;;;7.50;4.05;;;;;;;1.40;64.54;97475.13;10518464;28;20040;-65
2024/01/18 01:48:35;;;;;;;7.13;4.05;;;;;;;1.39;64.63;97494.88;10497906;28;20040;-65
2024/01/18 01:53:38;;;;;;;8.43;4.15;;;;;;;1.44;64.51;97503.19;10496907;27;20041;-65
2024/01/18 01:58:40;;;;;;;7.78;3.88;;;;;;;1.43;64.54;97503.25;10528015;27;20056;-65
2024/01/18 02:03:42;;;;;;;8.35;4.03;;;;;;;1.43;64.58;97506.66;10523411;28;20036;-65
2024/01/18 02:08:45;;;;;;;10.70;3.75;;;;;;;1.43;64.66;97510.97;10530508;27;20059;-65
2024/01/18 02:13:48;;;;;;;5.93;3.60;;;;;;;1.38;64.68;97506.09;10521135;27;20404;-64
2024/01/18 02:18:51;;;;;;;6.47;3.35;;;;;;;1.39;64.58;97512.91;10490365;28;20056;-65
2024/01/18 02:24:01;;;;;;;6.22;3.33;;;;;;;1.31;64.55;97513.41;10530057;27;20039;-64
2024/01/18 02:29:03;;;;;;;7.03;3.38;;;;;;;1.22;64.74;97503.63;10524634;28;20043;-65
2024/01/18 02:34:09;;;;;;;6.85;2.80;;;;;;;1.09;64.93;97512.19;10504643;28;20148;-65
2024/01/18 02:39:13;;;;;;;5.43;2.88;;;;;;;1.12;64.74;97493.97;10524581;28;20093;-64
2024/01/18 02:44:16;;;;;;;4.10;2.38;;;;;;;1.06;65.08;97517.53;10521330;28;20448;-65
2024/01/18 02:49:18;;;;;;;4.65;2.58;;;;;;;1.14;64.77;97518.72;10524454;27;20491;-65
2024/01/18 02:54:20;;;;;;;6.75;2.80;;;;;;;0.93;64.94;97504.56;10522223;27;20052;-65
2024/01/18 02:59:22;;;;;;;5.13;2.90;;;;;;;0.79;65.20;97532.84;10522413;27;20036;-65
2024/01/18 03:04:24;;;;;;;4.40;2.55;;;;;;;0.92;65.14;97531.22;10521784;28;20131;-65
2024/01/18 03:09:26;;;;;;;5.05;2.45;;;;;;;0.80;64.75;97521.66;10503645;27;20056;-65
2024/01/18 03:14:28;;;;;;;4.05;2.45;;;;;;;0.76;65.15;97545.91;10502583;28;20051;-65
2024/01/18 03:19:30;;;;;;;3.75;2.05;;;;;;;0.79;65.16;97535.41;10520512;28;20503;-65
2024/01/18 03:24:32;;;;;;;4.70;2.53;;;;;;;0.83;65.04;97530.94;10519339;28;20052;-65
2024/01/18 03:29:34;;;;;;;3.33;2.10;;;;;;;0.85;64.93;97514.47;10520303;28;20399;-65
2024/01/18 03:34:36;;;;;;;3.88;2.15;;;;;;;0.88;64.95;97526.34;10520173;28;20115;-65
2024/01/18 03:39:38;;;;;;;4.47;2.33;;;;;;;0.95;64.79;97520.72;10528115;28;20358;-65
2024/01/18 03:44:41;;;;;;;5.40;2.50;;;;;;;1.01;64.45;97506.69;10510334;27;20036;-65
2024/01/18 03:49:43;;;;;;;4.40;2.30;;;;;;;0.99;64.41;97496.47;10508141;28;20044;-65
2024/01/18 03:54:48;;;;;;;4.88;2.20;;;;;;;1.03;64.16;97502.28;10526122;27;20050;-65
2024/01/18 03:59:50;;;;;;;6.65;2.28;;;;;;;1.00;64.17;97495.56;10526759;28;20056;-65
2024/01/18 04:04:53;;;;;;;4.43;2.20;;;;;;;1.05;64.06;97503.00;10516416;27;20062;-65
2024/01/18 04:09:55;;;;;;;4.07;2.15;;;;;;;0.99;63.73;97517.06;10523948;28;20147;-64
2024/01/18 04:14:56;;;;;;;5.85;2.33;;;;;;;0.88;64.29;97540.03;10521585;27;20052;-64
2024/01/18 04:19:59;;;;;;;3.40;2.13;;;;;;;0.95;64.13;97551.59;10518988;28;20182;-65
2024/01/18 04:25:01;;;;;;;5.47;2.63;;;;;;;0.96;63.72;97563.56;10521825;28;20040;-66
2024/01/18 04:30:04;;;;;;;4.53;2.60;;;;;;;0.97;64.07;97564.41;10518086;28;20039;-65
2024/01/18 04:35:07;;;;;;;6.05;2.65;;;;;;;0.93;63.76;97576.59;10522174;27;20047;-64
2024/01/18 04:40:10;;;;;;;5.32;2.50;;;;;;;0.92;63.52;97585.25;10503755;28;20055;-66
2024/01/18 04:45:12;;;;;;;4.68;2.50;;;;;;;0.82;63.71;97584.13;10517002;28;20109;-65
2024/01/18 04:50:14;;;;;;;4.50;2.22;;;;;;;0.87;63.37;97605.25;10502864;28;20051;-66
2024/01/18 04:55:16;;;;;;;5.05;2.35;;;;;;;0.85;63.37;97611.44;10516717;28;20519;-66
2024/01/18 05:00:18;;;;;;;3.67;2.05;;;;;;;0.60;63.14;97626.59;10517680;28;20127;-65
2024/01/18 05:05:20;;;;;;;3.45;1.98;;;;;;;0.52;62.98;97624.47;10519285;28;20044;-64
2024/01/18 05:10:22;;;;;;;3.42;1.80;;;;;;;0.46;63.27;97629.94;10521387;28;20040;-64
2024/01/18 05:15:25;;;;;;;3.25;1.73;;;;;;;0.33;63.44;97628.97;10505695;28;20048;-64
2024/01/18 05:20:27;;;;;;;2.65;1.65;;;;;;;0.42;63.68;97628.47;10517421;28;20044;-64
2024/01/18 05:25:29;;;;;;;2.83;1.52;;;;;;;0.34;63.66;97626.28;10521781;28;20415;-65
2024/01/18 05:30:31;;;;;;;4.32;1.88;;;;;;;0.27;64.10;97634.44;10526298;28;20131;-64
2024/01/18 05:35:33;;;;;;;3.38;1.60;;;;;;;0.31;64.29;97643.63;10525334;28;20043;-63
2024/01/18 05:40:35;;;;;;;2.30;1.45;;;;;;;0.43;64.31;97641.22;10507554;28;20060;-64
2024/01/18 05:45:37;;;;;;;4.47;1.70;;;;;;;0.54;64.09;97653.50;10527915;28;20036;-64
2024/01/18 05:50:39;;;;;;;3.72;1.83;;;;;;;0.55;63.88;97668.00;10525530;28;20040;-63
2024/01/18 05:55:41;;;;;;;3.70;1.90;;;;;;;0.57;63.94;97678.19;10523848;28;20075;-63
2024/01/18 06:00:43;;;;;;;2.92;1.77;;;;;;;0.64;64.02;97675.22;10525373;28;20542;-63
2024/01/18 06:05:45;;;;;;;3.28;1.95;;;;;;;0.65;63.89;97683.75;10529537;28;20105;-63
2024/01/18 06:10:47;;;;;;;4.00;1.95;;;;;;;0.68;64.10;97688.72;10508623;28;20378;-65
2024/01/18 06:15:50;;;;;;;2.85;1.85;;;;;;;0.68;64.09;97692.13;10508209;27;20058;-64
2024/01/18 06:20:55;;;;;;;4.60;2.08;;;;;;;0.73;63.91;97697.84;10523902;28;20492;-65
2024/01/18 06:25:57;;;;;;;4.03;2.00;;;;;;;0.67;63.87;97699.94;10525578;27;20115;-65
2024/01/18 06:30:59;;;;;;;4.85;2.35;;;;;;;0.59;63.95;97727.84;10503296;28;20047;-65
2024/01/18 06:36:02;;;;;;;4.18;2.20;;;;;;;0.51;64.17;97723.09;10525692;28;20050;-64
2024/01/18 06:41:04;;;;;;;4.47;2.58;;;;;;;0.33;64.23;97731.78;10523334;28;20245;-64
2024/01/18 06:46:16;;;;;;;6.30;2.88;;;;;;;0.23;64.55;97746.88;10528222;28;20434;-64
2024/01/18 06:51:23;;;;;;;5.18;2.03;;;;;;;0.18;64.63;97759.13;10526334;28;20047;-65
2024/01/18 06:56:25;;;;;;;4.18;2.38;;;;;;;0.18;64.57;97764.28;10507716;28;20482;-64
2024/01/18 07:01:27;;;;;;;6.93;2.40;;;;;;;0.07;64.62;97760.63;10522740;28;20047;-65
2024/01/18 07:06:29;;;;;;;5.47;2.80;;;;;;;0.09;64.84;97763.94;10521741;28;20044;-64
2024/01/18 07:11:31;;;;;;;3.67;2.13;;;;;;;0.10;64.36;97778.44;10521316;28;20040;-64
2024/01/18 07:16:33;;;;;;;4.22;2.47;;;;;;;0.05;64.49;97777.84;10521230;28;20191;-64
2024/01/18 07:21:36;;;;;;;2.70;1.67;;;;;;;0.17;64.32;97775.47;10520953;28;20052;-65
2024/01/18 07:26:39;;;;;;;5.93;2.60;;;;;;;0.26;64.12;97780.13;10521099;28;20039;-65
2024/01/18 07:31:41;;;;;;;4.65;2.67;;;;;;;0.32;63.98;97781.56;10531047;28;20496;-65
2024/01/18 07:36:48;;;;;;;4.57;2.17;;;;;;;0.37;63.72;97792.41;10534425;28;20039;-66
2024/01/18 07:41:50;;;;;;;4.43;2.40;;;;;;;0.40;63.92;97799.97;10518860;27;20074;-64
2024/01/18 07:46:53;;;;;;;4.63;2.33;;;;;;;0.43;63.71;97797.25;10495529;28;20053;-64
2024/01/18 07:51:55;;;;;;;4.00;2.10;;;;;;;0.36;63.57;97793.34;10481814;28;20044;-65
2024/01/18 07:56:57;;;;;;;5.43;2.65;;;;;;;0.38;63.65;97807.75;10491689;28;20049;-66
2024/01/18 08:01:59;;;;;;;5.22;2.10;;;;;;;0.53;63.67;97806.97;10486931;28;20056;-65
2024/01/18 08:07:01;;;;;;;6.18;2.95;;;;;;;0.58;63.28;97824.72;10490137;28;20066;-65
2024/01/18 08:12:04;;;;;;;4.10;2.58;;;;;;;0.49;63.00;97820.06;10486158;28;20139;-63
2024/01/18 08:17:07;;;;;;;6.03;2.97;;;;;;;0.50;63.16;97824.31;10505720;28;20044;-65
2024/01/18 08:22:12;;;;;;;4.90;2.70;;;;;;;0.55;63.45;97824.88;10481821;28;20044;-65
2024/01/18 08:27:14;;;;;;;7.10;3.03;;;;;;;0.57;63.54;97828.19;10460088;28;20501;-65
2024/01/18 08:32:16;;;;;;;5.63;2.88;;;;;;;0.64;63.46;97837.25;10492978;28;20033;-65
2024/01/18 08:37:18;;;;;;;5.28;2.97;;;;;;;0.71;63.28;97846.28;10476790;28;20135;-65
2024/01/18 08:42:20;;;;;;;7.38;3.10;;;;;;;0.78;63.32;97842.50;10438184;28;20457;-65
2024/01/18 08:47:23;;;;;;;5.47;2.72;;;;;;;0.84;63.08;97852.47;10433770;28;20131;-65
2024/01/18 08:52:25;;;;;;;5.38;2.47;;;;;;;1.00;63.16;97855.88;10436344;28;20037;-65
2024/01/18 08:57:30;;;;;;;7.32;3.53;;;;;;;1.15;62.59;97867.91;10454156;28;20041;-65
2024/01/18 09:02:32;;;;;;;7.20;3.20;;;;;;;1.29;62.58;97880.84;10438542;28;20037;-66
2024/01/18 09:07:34;;;;;;;6.72;2.92;;;;;;;1.43;62.36;97877.50;10425527;28;20033;-67
2024/01/18 09:12:37;;;;;;;6.93;3.38;;;;;;;1.53;62.10;97903.56;10435074;28;20060;-67
2024/01/18 09:17:41;;;;;;;6.00;2.95;;;;;;;1.60;61.94;97908.31;10433003;28;20052;-67
2024/01/18 09:22:43;;;;;;;7.88;3.00;;;;;;;1.56;61.66;97929.19;10436362;28;20132;-67
2024/01/18 09:27:45;;;;;;;7.10;3.15;;;;;;;1.63;61.44;97935.63;10435502;28;20056;-67
2024/01/18 09:32:47;;;;;;;5.13;3.13;;;;;;;1.71;61.40;97938.63;10436301;28;20292;-67
2024/01/18 09:37:50;;;;;;;5.78;3.00;;;;;;;1.95;61.25;97945.00;10443132;28;20396;-66
2024/01/18 09:42:55;;;;;;;6.88;3.20;;;;;;;2.22;60.93;97964.03;10518832;28;20044;-66
2024/01/18 09:47:57;;;;;;;9.05;2.88;;;;;;;2.61;60.48;97981.53;10516887;28;20522;-67
2024/01/18 09:53:00;;;;;;;8.05;3.60;;;;;;;2.82;60.01;97973.38;10516784;28;20050;-66
2024/01/18 09:58:03;;;;;;;5.53;3.22;;;;;;;2.90;59.59;97981.50;10516948;28;20128;-67
2024/01/18 10:03:05;;;;;;;6.78;3.42;;;;;;;3.07;59.58;97989.03;10517008;28;20075;-67
2024/01/18 10:08:07;;;;;;;6.88;3.63;;;;;;;3.31;59.25;97999.66;10519092;28;20051;-66
2024/01/18 10:13:13;;;;;;;7.05;3.13;;;;;;;3.42;58.52;97993.81;10522214;28;20036;-67
2024/01/18 10:18:15;;;;;;;6.05;2.88;;;;;;;3.64;58.48;98009.69;10523273;28;20059;-67
2024/01/18 10:23:18;;;;;;;7.30;3.65;;;;;;;3.77;57.84;98015.72;10527994;28;20047;-67
2024/01/18 10:28:23;;;;;;;5.25;3.22;;;;;;;3.76;57.93;98032.19;10524884;28;20393;-66
2024/01/18 10:33:25;;;;;;;9.88;3.72;;;;;;;3.88;57.58;98044.38;10523432;28;20076;-66
2024/01/18 10:38:32;;;;;;;10.60;3.67;;;;;;;3.74;57.43;98052.94;10521727;28;20141;-66
2024/01/18 10:43:35;;;;;;;7.47;3.58;;;;;;;3.55;57.54;98059.34;10528189;28;20040;-66
2024/01/18 10:48:37;;;;;;;7.28;3.42;;;;;;;3.23;57.75;98065.63;10526727;28;20036;-66
2024/01/18 10:53:41;;;;;;;8.15;4.28;;;;;;;3.01;57.87;98069.47;10527633;28;20455;-66
2024/01/18 10:58:43;;;;;;;9.07;3.78;;;;;;;2.81;57.63;98069.78;10524894;28;20036;-66
2024/01/18 11:03:46;;;;;;;9.13;4.18;;;;;;;2.61;57.77;98085.59;10522211;28;20766;-67
2024/01/18 11:08:49;;;;;;;9.27;4.22;;;;;;;2.63;57.98;98112.16;10523165;28;20062;-66
2024/01/18 11:13:51;;;;;;;7.18;3.83;;;;;;;2.68;57.60;98117.06;10524103;28;20048;-66
2024/01/18 11:18:59;;;;;;;8.52;4.05;;;;;;;2.53;57.18;98126.50;10525723;28;20139;-67
2024/01/18 11:24:06;;;;;;;7.10;4.03;;;;;;;2.44;57.26;98137.31;10504826;28;20403;-67
2024/01/18 11:29:26;;;;;;;7.57;3.58;;;;;;;2.53;57.18;98159.19;10519392;28;20151;-67
2024/01/18 11:34:36;;;;;;;6.30;3.50;;;;;;;2.79;56.26;98154.25;10519845;28;20044;-66
2024/01/18 11:39:47;;;;;;;5.90;3.33;;;;;;;2.67;56.93;98152.34;10541920;27;20051;-67
2024/01/18 11:44:59;;;;;;;8.20;3.28;;;;;;;2.27;56.81;98170.94;10527434;28;20052;-67
2024/01/18 11:50:05;;;;;;;7.15;3.70;;;;;;;2.19;57.50;98189.41;10521137;28;20144;-67
2024/01/18 11:55:23;;;;;;;9.20;3.55;;;;;;;2.36;57.49;98190.25;10513655;28;20062;-67
2024/01/18 12:00:43;;;;;;;9.02;4.10;;;;;;;2.15;57.17;98203.38;10516501;28;20040;-67
2024/01/18 12:05:56;;;;;;;9.82;4.35;;;;;;;2.02;57.59;98219.56;10488683;28;20036;-67
2024/01/18 12:11:02;;;;;;;9.27;4.53;;;;;;;2.14;57.28;98212.03;10499297;28;20504;-67
2024/01/18 12:16:05;;;;;;;11.68;4.72;;;;;;;2.17;57.75;98221.38;10516600;28;20044;-67
2024/01/18 12:21:07;;;;;;;13.55;5.05;;;;;;;2.14;57.76;98230.09;10513665;28;20492;-66
2024/01/18 12:26:10;;;;;;;10.38;4.47;;;;;;;2.22;57.66;98233.09;10501151;28;20044;-66
2024/01/18 12:31:12;;;;;;;9.15;4.68;;;;;;;2.34;57.65;98236.75;10516840;28;20093;-66
2024/01/18 12:36:14;;;;;;;9.52;4.55;;;;;;;2.44;57.47;98242.28;10515412;28;20054;-66
2024/01/18 12:41:18;;;;;;;10.20;4.18;;;;;;;2.43;57.06;98244.00;10498576;28;20047;-66
2024/01/18 12:46:21;;;;;;;10.30;4.43;;;;;;;2.47;57.45;98249.84;10514330;28;20052;-67
2024/01/18 12:51:24;;;;;;;10.07;4.25;;;;;;;2.59;57.26;98265.50;10516598;28;20582;-67
2024/01/18 12:56:27;;;;;;;9.32;4.10;;;;;;;2.65;56.83;98275.50;10501541;28;20054;-66
2024/01/18 13:01:31;;;;;;;9.40;4.20;;;;;;;2.39;57.34;98288.09;10516109;28;20149;-68
2024/01/18 13:06:34;;;;;;;10.43;4.25;;;;;;;2.38;57.25;98307.09;10512659;28;20059;-68
2024/01/18 13:11:48;;;;;;;8.73;4.32;;;;;;;2.47;57.30;98310.03;10514941;28;20039;-67
2024/01/18 13:16:53;;;;;;;8.02;4.18;;;;;;;2.32;57.12;98322.91;10514103;28;20533;-67
2024/01/18 13:21:55;;;;;;;8.15;3.90;;;;;;;2.33;57.22;98329.69;10518948;28;20036;-68
2024/01/18 13:26:58;;;;;;;8.25;4.15;;;;;;;2.52;57.42;98341.56;10513457;28;20048;-68
2024/01/18 13:32:04;;;;;;;12.73;4.18;;;;;;;2.65;56.93;98358.06;10498945;28;20414;-68
2024/01/18 13:37:06;;;;;;;9.98;4.63;;;;;;;2.73;56.75;98361.09;10515366;28;20389;-68
2024/01/18 13:42:16;;;;;;;11.10;4.60;;;;;;;2.48;56.94;98376.16;10513305;28;20629;-69
2024/01/18 13:47:18;;;;;;;9.73;4.68;;;;;;;2.30;57.07;98390.00;10522965;28;20527;-68
2024/01/18 13:52:21;;;;;;;10.18;4.75;;;;;;;2.16;57.35;98397.63;10522985;28;20078;-68
2024/01/18 13:57:25;;;;;;;10.32;4.40;;;;;;;1.99;57.20;98423.44;10523827;28;20052;-68
2024/01/18 14:02:27;;;;;;;11.35;4.65;;;;;;;1.84;57.77;98437.03;10502680;28;20067;-68
2024/01/18 14:07:29;;;;;;;8.20;5.00;;;;;;;1.95;57.61;98437.38;10520150;28;20077;-68
2024/01/18 14:12:31;;;;;;;11.18;5.28;;;;;;;2.16;57.51;98469.81;10517093;28;20445;-68
2024/01/18 14:17:33;;;;;;;11.80;5.00;;;;;;;1.98;57.60;98486.19;10519496;28;20125;-68
2024/01/18 14:22:35;;;;;;;10.25;4.75;;;;;;;1.99;57.96;98499.00;10503511;28;20480;-67
2024/01/18 14:27:39;;;;;;;12.30;5.72;;;;;;;2.06;58.30;98509.88;10520642;28;21028;-68
2024/01/18 14:32:42;;;;;;;12.10;5.85;;;;;;;2.06;58.18;98533.06;10516854;28;20040;-68
2024/01/18 14:37:44;;;;;;;14.50;5.45;;;;;;;2.04;58.26;98545.19;10521509;28;20492;-68
2024/01/18 14:42:46;;;;;;;10.70;5.13;;;;;;;1.80;58.26;98561.81;10504333;28;20106;-68
2024/01/18 14:47:50;;;;;;;10.38;5.47;;;;;;;1.67;58.74;98584.72;10524556;28;20043;-67
2024/01/18 14:52:53;;;;;;;11.90;5.00;;;;;;;1.59;58.80;98598.84;10517730;28;20573;-68
2024/01/18 14:57:56;;;;;;;12.68;5.22;;;;;;;1.63;58.83;98606.38;10488340;28;20578;-67
2024/01/18 15:02:58;;;;;;;11.07;5.85;;;;;;;1.52;58.65;98624.09;10520828;28;20321;-67
2024/01/18 15:08:03;;;;;;;13.02;5.97;;;;;;;1.04;59.33;98639.88;10522341;28;20044;-68
2024/01/18 15:13:07;;;;;;;12.77;5.18;;;;;;;0.84;59.88;98659.63;10506977;28;20540;-68
2024/01/18 15:18:09;;;;;;;13.68;6.35;;;;;;;0.72;60.18;98666.13;10524885;28;20496;-66
2024/01/18 15:23:11;;;;;;;11.88;5.60;;;;;;;0.66;60.39;98666.34;10521751;28;20028;-66
2024/01/18 15:28:13;;;;;;;17.17;5.93;;;;;;;0.61;60.48;98675.97;10521083;28;20131;-67
2024/01/18 15:33:16;;;;;;;12.48;5.65;;;;;;;0.45;60.64;98698.06;10506525;28;20779;-66
2024/01/18 15:38:19;;;;;;;12.50;5.97;;;;;;;0.30;60.88;98714.09;10528121;28;20148;-66
2024/01/18 15:43:21;;;;;;;8.23;4.60;;;;;;;0.06;61.15;98732.97;10520926;28;20040;-66
2024/01/18 15:48:25;;;;;;;12.15;5.53;;;;;;;-0.06;61.45;98741.97;10519094;28;20040;-66
2024/01/18 15:53:28;;;;;;;11.48;5.38;;;;;;;0.02;61.40;98757.09;10518116;28;20056;-66
2024/01/18 15:58:30;;;;;;;12.30;4.93;;;;;;;-0.05;61.56;98773.66;10500089;28;20039;-66
2024/01/18 16:03:32;;;;;;;13.13;6.05;;;;;;;-0.26;62.06;98789.81;10515834;27;20453;-67
2024/01/18 16:08:34;;;;;;;11.75;5.90;;;;;;;-0.41;61.92;98796.28;10516024;28;20407;-67
2024/01/18 16:13:36;;;;;;;15.73;6.60;;;;;;;-0.53;62.22;98807.81;10516957;27;20316;-66
2024/01/18 16:18:39;;;;;;;10.25;5.82;;;;;;;-0.69;62.50;98824.63;10517311;28;20050;-66
2024/01/18 16:23:41;;;;;;;11.13;5.72;;;;;;;-0.93;63.04;98833.09;10498070;28;20131;-66
2024/01/18 16:28:43;;;;;;;12.00;5.82;;;;;;;-1.03;63.04;98847.09;10515012;28;20047;-66
2024/01/18 16:33:45;;;;;;;16.02;6.10;;;;;;;-1.00;63.21;98867.53;10515850;28;20067;-66
2024/01/18 16:38:47;;;;;;;15.50;6.13;;;;;;;-0.93;63.41;98891.28;10515989;28;20133;-66
2024/01/18 16:43:49;;;;;;;14.93;6.72;;;;;;;-0.83;63.22;98902.94;10513875;28;20603;-66
2024/01/18 16:48:52;;;;;;;14.60;6.38;;;;;;;-0.74;63.12;98913.75;10498889;28;20051;-64
2024/01/18 16:53:54;;;;;;;16.20;6.03;;;;;;;-0.70;62.94;98933.34;10515009;28;20048;-65
2024/01/18 16:58:56;;;;;;;13.13;6.70;;;;;;;-0.56;63.20;98941.47;10510680;28;20484;-64
2024/01/18 17:04:00;;;;;;;14.45;6.68;;;;;;;-0.42;63.31;98954.72;10514519;28;20056;-64
2024/01/18 17:09:04;;;;;;;13.63;7.18;;;;;;;-0.22;63.35;98979.78;10517327;28;20047;-64
2024/01/18 17:14:06;;;;;;;9.45;5.10;;;;;;;-0.07;62.89;98993.88;10526484;28;20043;-65
2024/01/18 17:19:09;;;;;;;14.85;6.55;;;;;;;-0.09;62.93;99005.94;10530185;27;20040;-64
2024/01/18 17:24:11;;;;;;;13.25;6.47;;;;;;;-0.03;63.07;99023.72;10535755;27;20199;-64
2024/01/18 17:29:13;;;;;;;12.85;6.95;;;;;;;0.14;62.89;99032.56;10539116;27;20111;-65
2024/01/18 17:34:16;;;;;;;17.45;6.65;;;;;;;0.23;62.87;99044.31;10538080;27;20460;-65
2024/01/18 17:39:18;;;;;;;14.18;6.80;;;;;;;0.36;62.76;99053.31;10543175;27;20075;-65
2024/01/18 17:44:22;;;;;;;13.77;6.75;;;;;;;0.52;62.52;99057.06;10537789;27;20040;-66
2024/01/18 17:49:25;;;;;;;16.80;7.65;;;;;;;0.54;62.88;99065.56;10522675;28;20043;-65
2024/01/18 17:54:27;;;;;;;16.05;7.45;;;;;;;0.61;62.67;99061.88;10523894;28;20036;-64
2024/01/18 17:59:29;;;;;;;20.08;7.93;;;;;;;0.56;62.80;99075.81;10505714;28;20395;-65
2024/01/18 18:04:31;;;;;;;15.98;7.50;;;;;;;0.57;62.92;99082.63;10525280;28;20139;-64
2024/01/18 18:09:33;;;;;;;14.02;6.60;;;;;;;0.64;63.01;99077.22;10522477;27;20230;-65
2024/01/18 18:14:36;;;;;;;22.05;7.82;;;;;;;0.59;62.69;99089.41;10520126;28;20067;-66
2024/01/18 18:19:38;;;;;;;14.15;6.43;;;;;;;0.65;62.52;99102.06;10524629;28;20048;-64
2024/01/18 18:24:40;;;;;;;17.73;7.35;;;;;;;0.47;62.72;99111.22;10507306;28;20036;-65
2024/01/18 18:29:42;;;;;;;16.08;7.22;;;;;;;0.35;63.08;99127.03;10522114;28;20051;-64
2024/01/18 18:34:44;;;;;;;17.25;7.57;;;;;;;0.27;63.12;99133.31;10519909;28;20048;-65
2024/01/18 18:39:46;;;;;;;20.30;7.97;;;;;;;0.09;63.88;99150.16;10517279;28;20063;-65
2024/01/18 18:44:52;;;;;;;16.58;7.50;;;;;;;0.15;63.96;99151.69;10521734;28;20089;-64
2024/01/18 18:49:54;;;;;;;16.85;7.88;;;;;;;0.15;63.91;99165.41;10503121;28;20229;-64
2024/01/18 18:54:56;;;;;;;17.95;8.02;;;;;;;0.12;63.96;99170.59;10519270;28;20113;-64
2024/01/18 18:59:58;;;;;;;18.52;7.45;;;;;;;0.14;64.03;99178.28;10518515;28;20239;-64
2024/01/18 19:05:00;;;;;;;18.17;8.40;;;;;;;0.16;63.66;99179.91;10521074;28;20051;-65
2024/01/18 19:10:03;;;;;;;13.77;7.07;;;;;;;0.01;63.56;99189.81;10520237;28;20155;-64
2024/01/18 19:15:05;;;;;;;15.68;7.35;;;;;;;-0.18;63.68;99196.34;10503870;28;20454;-64
2024/01/18 19:20:07;;;;;;;19.13;7.25;;;;;;;-0.48;63.82;99210.91;10519731;28;20066;-63
2024/01/18 19:25:10;;;;;;;17.23;8.30;;;;;;;-0.68;63.71;99214.00;10520621;28;20055;-64
2024/01/18 19:30:12;;;;;;;18.20;7.05;;;;;;;-0.93;64.17;99228.31;10517390;28;20044;-63
2024/01/18 19:35:15;;;;;;;16.42;6.68;;;;;;;-0.94;64.38;99247.16;10521209;28;20040;-64
2024/01/18 19:40:17;;;;;;;17.02;7.65;;;;;;;-0.93;64.53;99258.28;10519039;27;20539;-65
2024/01/18 19:45:21;;;;;;;16.42;6.95;;;;;;;-0.91;64.40;99265.06;10517427;28;20042;-64
2024/01/18 19:50:23;;;;;;;15.93;6.55;;;;;;;-0.88;64.14;99279.56;10523640;28;20051;-65
2024/01/18 19:55:26;;;;;;;13.43;7.20;;;;;;;-0.88;63.94;99298.34;10530208;28;20089;-64
2024/01/18 20:00:29;;;;;;;17.52;7.30;;;;;;;-0.99;64.27;99310.59;10523160;28;20075;-64
2024/01/18 20:05:33;;;;;;;16.20;6.40;;;;;;;-0.97;64.17;99319.09;10521745;28;20050;-64
2024/01/18 20:10:35;;;;;;;13.07;6.50;;;;;;;-0.95;64.17;99327.59;10521812;28;20125;-64
2024/01/18 20:15:37;;;;;;;16.50;7.47;;;;;;;-0.92;64.06;99332.66;10525577;28;20114;-64
2024/01/18 20:20:39;;;;;;;19.30;6.65;;;;;;;-0.81;64.05;99337.56;10526440;28;20052;-63
2024/01/18 20:25:41;;;;;;;16.60;7.13;;;;;;;-0.79;64.09;99343.50;10525532;28;20048;-64
2024/01/18 20:30:44;;;;;;;13.82;6.65;;;;;;;-0.76;63.90;99358.84;10530972;28;20130;-64
2024/01/18 20:35:46;;;;;;;16.90;7.50;;;;;;;-0.72;63.80;99356.13;10525519;28;20048;-64
2024/01/18 20:40:48;;;;;;;17.63;8.68;;;;;;;-0.69;63.75;99365.50;10525349;28;20067;-65
2024/01/18 20:45:50;;;;;;;14.18;6.97;;;;;;;-0.82;63.55;99371.81;10514921;28;20051;-64
2024/01/18 20:50:52;;;;;;;17.30;7.45;;;;;;;-1.11;63.76;99389.56;10544546;27;20052;-65
2024/01/18 20:55:54;;;;;;;19.42;7.80;;;;;;;-1.29;63.79;99406.19;10528735;28;20036;-65
2024/01/18 21:00:57;;;;;;;17.35;7.15;;;;;;;-1.29;64.16;99417.28;10500209;28;20059;-65
2024/01/18 21:05:59;;;;;;;14.40;6.78;;;;;;;-1.15;64.55;99417.84;10517329;28;20048;-64
2024/01/18 21:11:02;;;;;;;15.23;7.60;;;;;;;-0.92;63.95;99431.94;10517619;28;20036;-65
2024/01/18 21:16:04;;;;;;;13.63;6.35;;;;;;;-0.74;64.14;99444.38;10498902;28;20493;-64
2024/01/18 21:21:06;;;;;;;15.77;7.65;;;;;;;-0.60;63.82;99457.75;10522321;28;20048;-65
2024/01/18 21:26:08;;;;;;;13.80;6.68;;;;;;;-0.46;63.77;99455.72;10526901;28;20230;-65
2024/01/18 21:31:11;;;;;;;15.05;7.10;;;;;;;-0.33;63.72;99462.22;10523720;28;20496;-65
2024/01/18 21:36:13;;;;;;;15.93;7.72;;;;;;;-0.31;63.57;99466.47;10521257;28;20051;-64
2024/01/18 21:41:15;;;;;;;15.38;7.40;;;;;;;-0.33;63.50;99467.38;10523026;28;20036;-64
2024/01/18 21:46:22;;;;;;;17.15;6.57;;;;;;;-0.52;63.41;99484.94;10519985;28;20047;-65
2024/01/18 21:51:24;;;;;;;19.05;7.60;;;;;;;-0.55;63.34;99500.41;10519063;28;20044;-64
2024/01/18 21:56:26;;;;;;;22.35;8.25;;;;;;;-0.63;63.61;99498.88;10515280;28;20060;-64
2024/01/18 22:01:28;;;;;;;17.83;7.55;;;;;;;-0.48;63.78;99512.25;10512467;28;20495;-64
2024/01/18 22:06:31;;;;;;;15.55;6.80;;;;;;;-0.42;63.75;99514.69;10500165;28;20036;-65
2024/01/18 22:11:33;;;;;;;16.02;7.50;;;;;;;-0.40;63.60;99514.66;10522312;27;20166;-65
2024/01/18 22:16:35;;;;;;;17.35;8.30;;;;;;;-0.42;63.63;99527.53;10523804;27;20036;-65
2024/01/18 22:21:37;;;;;;;13.50;6.15;;;;;;;-0.49;63.24;99533.66;10486991;28;20582;-65
2024/01/18 22:26:39;;;;;;;14.25;6.60;;;;;;;-0.67;63.50;99554.59;10521515;28;20097;-64
2024/01/18 22:31:41;;;;;;;15.57;6.25;;;;;;;-0.76;63.29;99561.66;10521253;28;20055;-65
2024/01/18 22:36:43;;;;;;;13.10;6.63;;;;;;;-0.78;63.55;99574.50;10502228;28;20044;-65
2024/01/18 22:41:45;;;;;;;15.57;6.97;;;;;;;-0.73;63.74;99592.38;10521763;28;20134;-65
2024/01/18 22:46:47;;;;;;;14.10;6.00;;;;;;;-0.69;63.60;99589.75;10520886;28;20499;-64
2024/01/18 22:51:49;;;;;;;12.07;6.30;;;;;;;-0.64;63.76;99605.91;10524813;28;20068;-65
2024/01/18 22:56:51;;;;;;;15.57;7.22;;;;;;;-0.55;63.57;99605.72;10505198;28;20074;-64
2024/01/18 23:01:53;;;;;;;11.57;6.47;;;;;;;-0.48;63.38;99607.28;10540491;28;20050;-64
2024/01/18 23:06:55;;;;;;;20.17;7.25;;;;;;;-0.42;63.43;99601.19;10525371;28;20059;-65
2024/01/18 23:11:57;;;;;;;13.52;6.28;;;;;;;-0.38;63.45;99613.09;10521552;28;20158;-65
2024/01/18 23:16:59;;;;;;;11.98;7.20;;;;;;;-0.38;63.16;99621.63;10522722;28;20031;-64
2024/01/18 23:22:01;;;;;;;14.63;6.72;;;;;;;-0.51;63.10;99639.88;10523263;28;20130;-64
2024/01/18 23:27:03;;;;;;;18.10;7.15;;;;;;;-0.71;63.45;99640.28;10522688;28;20044;-65
2024/01/18 23:32:07;;;;;;;8.95;5.40;;;;;;;-0.69;63.75;99650.50;10523030;28;20048;-65